createdAt,value
2022-12-19T00:03:33.584Z,18.40
2022-12-19T00:06:04.282Z,19.25
2022-12-19T00:08:31.223Z,19.05
2022-12-19T00:11:01.057Z,19.52
2022-12-19T00:13:31.184Z,20.13
2022-12-19T00:16:26.095Z,20.23
2022-12-19T00:18:55.399Z,19.98
2022-12-19T00:21:24.622Z,19.98
2022-12-19T00:23:51.898Z,20.02
2022-12-19T00:26:20.450Z,18.60
2022-12-19T00:28:49.751Z,19.98
2022-12-19T00:31:18.447Z,19.58
2022-12-19T00:33:45.342Z,18.83
2022-12-19T00:36:15.041Z,17.50
2022-12-19T00:38:44.161Z,20.60
2022-12-19T00:41:14.171Z,19.55
2022-12-19T00:43:44.161Z,19.40
2022-12-19T00:46:14.084Z,19.20
2022-12-19T00:48:42.281Z,19.30
2022-12-19T00:51:15.862Z,19.25
2022-12-19T00:53:43.384Z,19.27
2022-12-19T00:56:19.181Z,18.70
2022-12-19T00:58:47.381Z,19.88
2022-12-19T01:01:27.363Z,19.80
2022-12-19T01:04:26.553Z,19.98
2022-12-19T01:06:41.311Z,19.77
2022-12-19T01:09:10.391Z,19.50
2022-12-19T01:12:03.211Z,18.88
2022-12-19T01:14:29.904Z,17.67
2022-12-19T01:16:56.643Z,18.35
2022-12-19T01:19:23.387Z,19.13
2022-12-19T01:21:50.114Z,19.38
2022-12-19T01:24:19.242Z,19.88
2022-12-19T01:26:46.684Z,19.98
2022-12-19T01:29:13.452Z,19.45
2022-12-19T01:31:40.280Z,18.58
2022-12-19T01:34:07.101Z,20.73
2022-12-19T01:36:34.940Z,19.55
2022-12-19T01:39:06.769Z,19.42
2022-12-19T01:41:33.543Z,21.75
2022-12-19T01:44:01.773Z,22.00
2022-12-19T01:46:44.717Z,20.70
2022-12-19T01:49:20.929Z,19.75
2022-12-19T01:51:53.869Z,21.73
2022-12-19T01:54:25.620Z,22.38
2022-12-19T01:56:55.274Z,21.10
2022-12-19T01:59:46.085Z,22.23
2022-12-19T02:02:48.965Z,21.50
2022-12-19T02:05:15.909Z,21.08
2022-12-19T02:07:44.175Z,22.25
2022-12-19T02:10:11.195Z,21.52
2022-12-19T02:12:41.812Z,22.35
2022-12-19T02:15:09.631Z,23.10
2022-12-19T02:18:01.820Z,21.55
2022-12-19T02:21:08.546Z,23.00
2022-12-19T02:24:00.100Z,20.25
2022-12-19T02:26:35.861Z,21.90
2022-12-19T02:29:28.761Z,22.52
2022-12-19T02:32:12.890Z,21.45
2022-12-19T02:34:44.669Z,20.85
2022-12-19T02:37:18.303Z,22.60
2022-12-19T02:40:05.627Z,22.38
2022-12-19T02:42:37.947Z,22.23
2022-12-19T02:45:08.184Z,21.73
2022-12-19T02:50:04.572Z,20.67
2022-12-19T02:52:31.297Z,22.40
2022-12-19T02:55:03.340Z,21.30
2022-12-19T02:57:33.155Z,21.58
2022-12-19T03:00:14.233Z,21.17
2022-12-19T03:02:46.609Z,20.60
2022-12-19T03:05:49.048Z,20.42
2022-12-19T03:08:43.430Z,19.48
2022-12-19T03:11:14.979Z,21.80
2022-12-19T03:13:44.697Z,20.45
2022-12-19T03:16:12.609Z,21.40
2022-12-19T03:18:40.472Z,20.50
2022-12-19T03:21:15.854Z,20.05
2022-12-19T03:23:44.878Z,19.92
2022-12-19T03:26:17.940Z,19.85
2022-12-19T03:29:03.708Z,18.58
2022-12-19T03:31:33.438Z,19.20
2022-12-19T03:34:20.971Z,19.05
2022-12-19T03:36:53.425Z,19.10
2022-12-19T03:39:22.098Z,18.60
2022-12-19T03:42:09.471Z,19.27
2022-12-19T03:44:39.620Z,17.75
2022-12-19T03:49:37.891Z,17.80
2022-12-19T03:52:23.415Z,19.02
2022-12-19T03:55:13.494Z,19.20
2022-12-19T03:58:02.515Z,18.92
2022-12-19T04:00:35.645Z,18.33
2022-12-19T04:03:04.250Z,18.13
2022-12-19T04:05:32.988Z,18.48
2022-12-19T04:08:04.241Z,17.90
2022-12-19T04:10:38.521Z,18.63
2022-12-19T04:13:12.124Z,17.60
2022-12-19T04:15:57.833Z,19.08
2022-12-19T04:18:25.086Z,18.05
2022-12-19T04:21:11.827Z,17.38
2022-12-19T04:23:44.094Z,18.90
2022-12-19T04:26:14.126Z,18.88
2022-12-19T04:28:47.150Z,17.38
2022-12-19T04:31:15.563Z,17.67
2022-12-19T04:33:42.719Z,17.35
2022-12-19T04:36:11.146Z,17.88
2022-12-19T04:38:38.064Z,16.55
2022-12-19T04:41:05.015Z,17.25
2022-12-19T04:43:31.795Z,17.35
2022-12-19T04:45:58.580Z,16.13
2022-12-19T04:48:26.151Z,17.50
2022-12-19T04:50:53.204Z,17.77
2022-12-19T04:53:19.902Z,15.30
2022-12-19T04:55:46.701Z,17.55
2022-12-19T04:58:17.618Z,14.95
2022-12-19T05:00:47.098Z,16.38
2022-12-19T05:03:14.849Z,17.02
2022-12-19T05:05:41.685Z,17.33
2022-12-19T05:08:08.974Z,15.80
2022-12-19T05:10:38.014Z,16.90
2022-12-19T05:13:04.778Z,15.75
2022-12-19T05:15:31.537Z,15.55
2022-12-19T05:17:58.281Z,15.50
2022-12-19T05:20:25.099Z,16.90
2022-12-19T05:22:51.843Z,15.88
2022-12-19T05:25:18.578Z,15.93
2022-12-19T05:27:45.309Z,15.68
2022-12-19T05:30:12.396Z,15.23
2022-12-19T05:32:39.182Z,15.68
2022-12-19T05:35:06.374Z,15.02
2022-12-19T05:37:35.247Z,14.68
2022-12-19T05:40:02.233Z,13.80
2022-12-19T05:42:29.035Z,14.93
2022-12-19T05:44:58.119Z,15.85
2022-12-19T05:47:25.240Z,14.63
2022-12-19T05:49:58.096Z,15.27
2022-12-19T05:52:24.872Z,14.40
2022-12-19T05:54:52.080Z,14.98
2022-12-19T05:57:18.891Z,15.05
2022-12-19T05:59:45.604Z,15.10
2022-12-19T06:02:12.476Z,15.57
2022-12-19T06:04:39.274Z,15.48
2022-12-19T06:07:06.011Z,14.57
2022-12-19T06:09:32.771Z,14.07
2022-12-19T06:11:59.547Z,14.65
2022-12-19T06:14:26.828Z,14.32
2022-12-19T06:16:53.557Z,15.02
2022-12-19T06:19:20.876Z,16.15
2022-12-19T06:21:48.641Z,15.52
2022-12-19T06:24:15.718Z,15.43
2022-12-19T06:26:43.032Z,16.40
2022-12-19T06:29:09.775Z,14.82
2022-12-19T06:31:36.654Z,15.52
2022-12-19T06:34:03.511Z,15.45
2022-12-19T06:36:31.599Z,16.05
2022-12-19T06:38:58.973Z,14.98
2022-12-19T06:41:44.647Z,15.93
2022-12-19T06:44:15.510Z,16.75
2022-12-19T06:46:42.839Z,15.70
2022-12-19T06:49:11.351Z,14.68
2022-12-19T06:51:38.234Z,14.57
2022-12-19T06:54:05.259Z,15.25
2022-12-19T06:56:39.579Z,15.20
2022-12-19T06:59:07.533Z,15.10
2022-12-19T07:02:11.360Z,15.43
2022-12-19T07:04:46.704Z,15.38
2022-12-19T07:07:13.964Z,16.40
2022-12-19T07:09:40.999Z,15.15
2022-12-19T07:12:08.323Z,15.65
2022-12-19T07:14:35.214Z,15.05
2022-12-19T07:17:03.345Z,15.43
2022-12-19T07:19:32.059Z,16.02
2022-12-19T07:22:00.527Z,15.35
2022-12-19T07:24:27.516Z,15.52
2022-12-19T07:26:54.318Z,17.80
2022-12-19T07:29:21.071Z,18.83
2022-12-19T07:31:47.863Z,16.88
2022-12-19T07:34:14.668Z,15.25
2022-12-19T07:36:41.452Z,15.30
2022-12-19T07:39:08.314Z,15.20
2022-12-19T07:41:38.743Z,15.52
2022-12-19T07:44:06.804Z,14.82
2022-12-19T07:46:33.539Z,15.73
2022-12-19T07:49:00.923Z,15.38
2022-12-19T07:51:28.537Z,15.18
2022-12-19T07:53:55.308Z,15.35
2022-12-19T07:56:22.262Z,16.27
2022-12-19T07:58:49.154Z,15.60
2022-12-19T08:01:16.090Z,14.50
2022-12-19T08:03:43.029Z,14.85
2022-12-19T08:06:10.304Z,15.60
2022-12-19T08:08:37.994Z,14.80
2022-12-19T08:11:22.491Z,15.13
2022-12-19T08:13:49.718Z,14.57
2022-12-19T08:16:16.547Z,14.98
2022-12-19T08:18:43.593Z,14.65
2022-12-19T08:21:11.190Z,14.13
2022-12-19T08:23:40.951Z,14.43
2022-12-19T08:26:11.657Z,14.70
2022-12-19T08:28:38.672Z,14.77
2022-12-19T08:31:11.182Z,14.52
2022-12-19T08:33:38.604Z,15.00
2022-12-19T08:36:07.083Z,15.20
2022-12-19T08:38:34.967Z,14.65
2022-12-19T08:41:02.136Z,14.73
2022-12-19T08:43:29.265Z,15.32
2022-12-19T08:45:56.529Z,16.58
2022-12-19T08:48:24.043Z,18.10
2022-12-19T08:50:50.850Z,19.15
2022-12-19T08:53:22.763Z,17.30
2022-12-19T08:56:00.625Z,16.85
2022-12-19T08:58:29.989Z,16.90
2022-12-19T09:01:05.228Z,17.55
2022-12-19T09:03:35.268Z,16.23
2022-12-19T09:06:20.214Z,16.17
2022-12-19T09:08:47.161Z,17.02
2022-12-19T09:11:17.182Z,16.45
2022-12-19T09:13:45.100Z,17.27
2022-12-19T09:16:16.207Z,17.95
2022-12-19T09:18:48.788Z,16.67
2022-12-19T09:21:17.367Z,15.75
2022-12-19T09:23:49.105Z,15.80
2022-12-19T09:26:17.446Z,15.25
2022-12-19T09:28:46.457Z,15.52
2022-12-19T09:31:16.621Z,16.13
2022-12-19T09:36:17.143Z,16.73
2022-12-19T09:38:44.406Z,15.25
2022-12-19T09:41:15.835Z,14.85
2022-12-19T09:43:56.475Z,16.85
2022-12-19T09:46:45.468Z,15.68
2022-12-19T09:49:25.153Z,16.27
2022-12-19T09:52:13.215Z,16.38
2022-12-19T09:54:45.978Z,15.23
2022-12-19T09:57:23.792Z,16.08
2022-12-19T10:00:02.254Z,16.80
2022-12-19T10:02:47.720Z,16.13
2022-12-19T10:06:52.534Z,15.85
2022-12-19T10:08:54.985Z,16.67
2022-12-19T10:14:41.911Z,15.60
2022-12-19T10:17:34.316Z,17.65
2022-12-19T10:20:42.773Z,17.40
2022-12-19T10:23:45.626Z,17.25
2022-12-19T10:26:29.938Z,18.05
2022-12-19T10:28:57.074Z,19.13
2022-12-19T10:31:42.003Z,17.80
2022-12-19T10:34:22.609Z,18.08
2022-12-19T10:39:50.837Z,18.00
2022-12-19T10:42:33.693Z,19.40
2022-12-19T10:45:09.931Z,18.13
2022-12-19T10:47:37.372Z,17.58
2022-12-19T10:50:09.526Z,16.40
2022-12-19T10:52:54.676Z,17.08
2022-12-19T10:55:40.553Z,17.80
2022-12-19T10:58:35.189Z,17.65
2022-12-19T11:01:10.483Z,18.52
2022-12-19T11:03:38.988Z,18.52
2022-12-19T11:06:06.566Z,17.23
2022-12-19T11:08:36.172Z,19.13
2022-12-19T11:12:01.940Z,19.40
2022-12-19T11:18:17.128Z,19.42
2022-12-19T11:19:20.740Z,20.15
2022-12-19T11:29:31.227Z,19.08
2022-12-19T11:29:54.651Z,19.38
2022-12-19T11:30:59.586Z,19.52
2022-12-19T11:30:59.586Z,19.80
2022-12-19T11:34:24.144Z,19.67
2022-12-19T11:37:46.555Z,18.73
2022-12-19T11:40:32.850Z,18.00
2022-12-19T11:43:42.683Z,20.27
2022-12-19T11:46:21.720Z,20.20
2022-12-19T11:49:34.968Z,18.58
2022-12-19T11:53:03.285Z,20.00
2022-12-19T11:57:55.495Z,19.25
2022-12-19T12:00:24.896Z,21.25
2022-12-19T12:03:21.667Z,21.65
2022-12-19T12:05:50.291Z,21.42
2022-12-19T12:10:43.594Z,21.13
2022-12-19T12:13:35.590Z,21.70
2022-12-19T12:24:15.910Z,22.33
2022-12-19T12:29:39.843Z,23.23
2022-12-19T12:31:20.597Z,20.48
2022-12-19T12:32:02.522Z,20.42
2022-12-19T12:32:03.192Z,20.25
2022-12-19T12:32:04.668Z,19.17
2022-12-19T12:35:11.082Z,20.13
2022-12-19T12:38:36.851Z,18.17
2022-12-19T12:42:04.044Z,19.52
2022-12-19T12:44:45.825Z,18.80
2022-12-19T12:47:22.742Z,19.45
2022-12-19T12:49:54.909Z,20.25
2022-12-19T12:52:33.692Z,20.15
2022-12-19T12:55:01.867Z,18.55
2022-12-19T12:57:28.788Z,20.38
2022-12-19T13:00:31.713Z,20.40
2022-12-19T13:03:06.159Z,19.63
2022-12-19T13:05:36.674Z,18.65
2022-12-19T13:08:26.204Z,19.65
2022-12-19T13:11:04.168Z,22.05
2022-12-19T13:13:55.136Z,20.15
2022-12-19T13:16:44.833Z,21.20
2022-12-19T13:19:28.431Z,21.00
2022-12-19T13:22:05.157Z,19.30
2022-12-19T13:24:55.065Z,21.52
2022-12-19T13:27:21.862Z,21.00
2022-12-19T13:30:00.517Z,19.77
2022-12-19T13:32:54.663Z,20.00
2022-12-19T13:36:57.367Z,19.90
2022-12-19T13:39:59.747Z,20.10
2022-12-19T13:41:45.555Z,19.33
2022-12-19T13:44:12.505Z,19.27
2022-12-19T13:46:42.660Z,20.98
2022-12-19T13:51:46.796Z,20.15
2022-12-19T13:54:26.991Z,19.98
2022-12-19T13:56:55.556Z,20.45
2022-12-19T13:59:26.839Z,19.70
2022-12-19T14:01:55.077Z,20.13
2022-12-19T14:04:33.577Z,19.60
2022-12-19T14:07:04.043Z,19.45
2022-12-19T14:11:28.592Z,19.30
2022-12-19T14:13:46.862Z,19.27
2022-12-19T14:15:34.506Z,19.73
2022-12-19T14:18:44.666Z,20.90
2022-12-19T14:22:09.946Z,19.92
2022-12-19T14:24:21.739Z,19.88
2022-12-19T14:28:19.132Z,19.27
2022-12-19T14:30:27.901Z,20.13
2022-12-19T14:33:43.683Z,20.03
2022-12-19T14:35:47.805Z,19.42
2022-12-19T14:39:23.844Z,19.50
2022-12-19T14:42:01.077Z,19.73
2022-12-19T14:52:08.041Z,19.30
2022-12-19T14:52:34.220Z,19.88
2022-12-19T14:54:24.731Z,19.98
2022-12-19T14:54:37.574Z,19.90
2022-12-19T14:58:57.638Z,24.40
2022-12-19T15:01:28.157Z,22.10
2022-12-19T15:04:50.341Z,25.65
2022-12-19T15:07:07.233Z,23.45
2022-12-19T15:11:09.296Z,21.48
2022-12-19T15:14:49.362Z,20.25
2022-12-19T15:15:59.290Z,20.27
2022-12-19T15:18:29.272Z,20.67
2022-12-19T15:20:59.357Z,21.73
2022-12-19T15:26:03.845Z,19.60
2022-12-19T15:28:52.639Z,21.08
2022-12-19T15:31:34.982Z,18.98
2022-12-19T15:36:58.303Z,19.92
2022-12-19T15:39:26.730Z,21.13
2022-12-19T15:41:56.440Z,22.27
2022-12-19T15:44:36.812Z,18.73
2022-12-19T15:47:06.711Z,21.73
2022-12-19T15:49:35.373Z,19.40
2022-12-19T15:52:02.949Z,20.52
2022-12-19T15:57:38.634Z,20.02
2022-12-19T16:00:08.725Z,20.20
2022-12-19T16:05:25.456Z,20.40
2022-12-19T16:07:52.821Z,28.98
2022-12-19T16:10:19.621Z,22.58
2022-12-19T16:12:53.943Z,21.42
2022-12-19T16:15:29.572Z,23.33
2022-12-19T16:17:58.157Z,21.63
2022-12-19T16:20:28.733Z,21.45
2022-12-19T16:22:55.785Z,21.23
2022-12-19T16:25:27.626Z,21.20
2022-12-19T16:27:58.458Z,21.50
2022-12-19T16:30:33.647Z,22.38
2022-12-19T16:33:00.519Z,20.63
2022-12-19T16:36:02.494Z,23.17
2022-12-19T16:38:16.935Z,21.13
2022-12-19T16:40:44.673Z,21.40
2022-12-19T16:43:17.457Z,20.15
2022-12-19T16:45:45.294Z,21.02
2022-12-19T16:48:21.950Z,20.05
2022-12-19T16:50:49.667Z,21.70
2022-12-19T16:53:17.053Z,22.63
2022-12-19T16:55:45.824Z,23.08
2022-12-19T16:58:20.511Z,22.10
2022-12-19T17:00:47.878Z,22.75
2022-12-19T17:03:27.775Z,21.73
2022-12-19T17:05:55.779Z,22.80
2022-12-19T17:08:23.249Z,22.75
2022-12-19T17:10:50.581Z,22.20
2022-12-19T17:13:21.297Z,22.38
2022-12-19T17:15:56.043Z,20.65
2022-12-19T17:18:35.735Z,22.98
2022-12-19T17:21:02.860Z,21.88
2022-12-19T17:23:32.713Z,22.48
2022-12-19T17:26:00.572Z,21.30
2022-12-19T17:28:28.875Z,20.83
2022-12-19T17:30:57.928Z,21.00
2022-12-19T17:33:36.721Z,21.90
2022-12-19T17:36:06.017Z,22.60
2022-12-19T17:38:33.931Z,21.92
2022-12-19T17:41:00.865Z,21.35
2022-12-19T17:43:27.642Z,22.33
2022-12-19T17:45:54.460Z,21.63
2022-12-19T17:48:33.063Z,21.33
2022-12-19T17:51:00.306Z,19.35
2022-12-19T17:53:27.268Z,21.27
2022-12-19T17:55:54.037Z,20.23
2022-12-19T18:01:29.568Z,20.70
2022-12-19T18:03:56.445Z,21.02
2022-12-19T18:06:23.194Z,20.70
2022-12-19T18:08:50.035Z,20.38
2022-12-19T18:11:26.492Z,21.38
2022-12-19T18:13:54.051Z,20.98
2022-12-19T18:16:27.016Z,20.15
2022-12-19T18:18:54.174Z,21.33
2022-12-19T18:21:24.536Z,20.67
2022-12-19T18:23:51.803Z,20.60
2022-12-19T18:26:19.080Z,20.92
2022-12-19T18:28:46.253Z,20.40
2022-12-19T18:31:16.890Z,21.40
2022-12-19T18:33:46.986Z,20.77
2022-12-19T18:36:24.174Z,20.60
2022-12-19T18:38:52.138Z,20.73
2022-12-19T18:41:19.892Z,21.13
2022-12-19T18:43:47.160Z,20.50
2022-12-19T18:46:36.098Z,21.60
2022-12-19T18:49:03.843Z,21.65
2022-12-19T18:51:30.907Z,21.20
2022-12-19T18:53:57.991Z,24.73
2022-12-19T18:56:24.769Z,21.48
2022-12-19T18:58:51.642Z,21.73
2022-12-19T19:01:22.714Z,20.70
2022-12-19T19:03:55.351Z,20.95
2022-12-19T19:06:28.299Z,20.65
2022-12-19T19:08:59.309Z,20.48
2022-12-19T19:11:27.038Z,20.98
2022-12-19T19:13:53.923Z,22.70
2022-12-19T19:16:24.912Z,21.30
2022-12-19T19:18:56.501Z,20.30
2022-12-19T19:21:27.873Z,21.55
2022-12-19T19:24:04.177Z,20.13
2022-12-19T19:26:31.219Z,19.90
2022-12-19T19:28:59.737Z,20.92
2022-12-19T19:31:29.347Z,20.33
2022-12-19T19:34:01.343Z,19.33
2022-12-19T19:36:31.713Z,22.00
2022-12-19T19:38:58.780Z,21.58
2022-12-19T19:41:30.196Z,22.90
2022-12-19T19:43:58.978Z,23.13
2022-12-19T19:46:27.440Z,21.52
2022-12-19T19:48:54.821Z,24.48
2022-12-19T19:51:21.892Z,23.45
2022-12-19T19:53:49.351Z,23.73
2022-12-19T19:56:16.692Z,24.20
2022-12-19T19:58:43.497Z,24.45
2022-12-19T20:01:14.650Z,25.02
2022-12-19T20:03:45.382Z,25.33
2022-12-19T20:06:12.706Z,22.95
2022-12-19T20:08:40.796Z,23.20
2022-12-19T20:11:11.122Z,23.95
2022-12-19T20:13:38.724Z,25.00
2022-12-19T20:16:08.782Z,22.42
2022-12-19T20:21:05.595Z,22.20
2022-12-19T20:23:36.956Z,22.90
2022-12-19T20:26:05.612Z,24.48
2022-12-19T20:28:33.150Z,23.48
2022-12-19T20:31:00.099Z,22.67
2022-12-19T20:33:27.366Z,23.35
2022-12-19T20:36:06.314Z,24.50
2022-12-19T20:38:33.394Z,24.75
2022-12-19T20:41:00.362Z,26.08
2022-12-19T20:43:27.176Z,24.80
2022-12-19T20:46:01.898Z,24.65
2022-12-19T20:48:28.763Z,24.83
2022-12-19T20:50:59.870Z,24.60
2022-12-19T20:53:27.307Z,23.85
2022-12-19T20:55:58.145Z,25.08
2022-12-19T20:58:30.280Z,24.98
2022-12-19T21:01:02.705Z,25.83
2022-12-19T21:03:30.474Z,23.83
2022-12-19T21:05:57.913Z,24.45
2022-12-19T21:08:25.920Z,24.48
2022-12-19T21:10:53.428Z,25.98
2022-12-19T21:13:21.531Z,26.02
2022-12-19T21:15:55.522Z,25.15
2022-12-19T21:18:23.428Z,25.48
2022-12-19T21:20:52.588Z,24.77
2022-12-19T21:23:19.723Z,24.17
2022-12-19T21:25:46.467Z,24.20
2022-12-19T21:28:13.581Z,24.60
2022-12-19T21:30:40.357Z,24.02
2022-12-19T21:33:07.151Z,26.23
2022-12-19T21:35:34.833Z,24.60
2022-12-19T21:38:01.979Z,25.42
2022-12-19T21:40:28.714Z,26.00
2022-12-19T21:42:55.505Z,23.92
2022-12-19T21:45:22.267Z,25.08
2022-12-19T21:47:49.120Z,24.60
2022-12-19T21:50:15.893Z,23.88
2022-12-19T21:52:42.650Z,23.98
2022-12-19T21:55:10.033Z,25.15
2022-12-19T21:57:41.187Z,24.80
2022-12-19T22:00:10.694Z,25.10
2022-12-19T22:02:37.627Z,25.48
2022-12-19T22:05:05.736Z,23.02
2022-12-19T22:07:33.277Z,24.17
2022-12-19T22:10:00.262Z,24.45
2022-12-19T22:12:27.024Z,24.75
2022-12-19T22:14:53.762Z,23.35
2022-12-19T22:17:20.495Z,23.88
2022-12-19T22:19:47.266Z,24.00
2022-12-19T22:22:14.179Z,23.45
2022-12-19T22:24:40.931Z,25.00
2022-12-19T22:27:07.714Z,24.25
2022-12-19T22:29:36.732Z,23.05
2022-12-19T22:32:04.855Z,24.20
2022-12-19T22:34:31.689Z,23.92
2022-12-19T22:36:58.450Z,23.55
2022-12-19T22:39:25.258Z,23.52
2022-12-19T22:41:52.195Z,22.35
2022-12-19T22:44:21.715Z,23.27
2022-12-19T22:46:49.330Z,22.65
2022-12-19T22:49:16.384Z,22.40
2022-12-19T22:51:44.337Z,24.33
2022-12-19T22:54:13.208Z,23.42
2022-12-19T22:56:41.994Z,23.25
2022-12-19T22:59:11.188Z,23.48
2022-12-19T23:01:42.712Z,22.70
2022-12-19T23:04:12.851Z,22.00
2022-12-19T23:06:39.928Z,25.25
2022-12-19T23:09:08.255Z,22.55
2022-12-19T23:11:37.539Z,22.13
2022-12-19T23:14:06.514Z,21.23
2022-12-19T23:16:33.655Z,22.55
2022-12-19T23:19:00.655Z,22.15
2022-12-19T23:21:27.988Z,22.33
2022-12-19T23:23:55.843Z,22.27
2022-12-19T23:26:30.112Z,23.33
2022-12-19T23:28:59.845Z,21.80
2022-12-19T23:31:27.932Z,22.17
2022-12-19T23:33:56.075Z,20.95
2022-12-19T23:36:52.661Z,21.70
2022-12-19T23:39:11.855Z,21.48
2022-12-19T23:41:39.377Z,21.17
2022-12-19T23:44:06.553Z,21.83
2022-12-19T23:46:33.300Z,21.67
2022-12-19T23:49:00.118Z,21.83
2022-12-19T23:51:28.440Z,22.02
2022-12-19T23:53:56.103Z,20.45
2022-12-19T23:56:25.818Z,20.95
2022-12-19T23:58:53.329Z,22.80
